sensor_id;sensor_type;location;lat;lon;timestamp;P1;durP1;ratioP1;P2;durP2;ratioP2
84966;SDS011;75275;51.348;12.358;2024-01-07T00:01:07;29.65;;;13.85;;
84966;SDS011;75275;51.348;12.358;2024-01-07T00:03:38;21.20;;;11.55;;
84966;SDS011;75275;51.348;12.358;2024-01-07T00:06:11;19.52;;;11.25;;
84966;SDS011;75275;51.348;12.358;2024-01-07T00:08:38;23.08;;;12.27;;
84966;SDS011;75275;51.348;12.358;2024-01-07T00:11:05;23.45;;;12.95;;
84966;SDS011;75275;51.348;12.358;2024-01-07T00:13:32;22.40;;;12.10;;
84966;SDS011;75275;51.348;12.358;2024-01-07T00:16:03;25.63;;;12.25;;
84966;SDS011;75275;51.348;12.358;2024-01-07T00:18:30;26.95;;;13.15;;
84966;SDS011;75275;51.348;12.358;2024-01-07T00:20:57;24.77;;;13.48;;
84966;SDS011;75275;51.348;12.358;2024-01-07T00:23:26;31.85;;;13.73;;
84966;SDS011;75275;51.348;12.358;2024-01-07T00:25:53;28.20;;;13.45;;
84966;SDS011;75275;51.348;12.358;2024-01-07T00:28:20;24.02;;;13.05;;
84966;SDS011;75275;51.348;12.358;2024-01-07T00:30:47;28.45;;;13.50;;
84966;SDS011;75275;51.348;12.358;2024-01-07T00:33:13;23.85;;;12.98;;
84966;SDS011;75275;51.348;12.358;2024-01-07T00:35:40;24.83;;;12.05;;
84966;SDS011;75275;51.348;12.358;2024-01-07T00:38:10;24.27;;;13.82;;
84966;SDS011;75275;51.348;12.358;2024-01-07T00:40:38;21.10;;;12.13;;
84966;SDS011;75275;51.348;12.358;2024-01-07T00:43:07;21.25;;;11.00;;
84966;SDS011;75275;51.348;12.358;2024-01-07T00:45:34;21.35;;;11.27;;
84966;SDS011;75275;51.348;12.358;2024-01-07T00:48:01;21.80;;;10.95;;
84966;SDS011;75275;51.348;12.358;2024-01-07T00:50:28;18.77;;;9.55;;
84966;SDS011;75275;51.348;12.358;2024-01-07T00:52:57;18.45;;;10.10;;
84966;SDS011;75275;51.348;12.358;2024-01-07T00:55:24;18.42;;;10.45;;
84966;SDS011;75275;51.348;12.358;2024-01-07T00:57:54;17.50;;;9.38;;
84966;SDS011;75275;51.348;12.358;2024-01-07T01:00:28;18.13;;;10.63;;
84966;SDS011;75275;51.348;12.358;2024-01-07T01:02:55;15.70;;;8.85;;
84966;SDS011;75275;51.348;12.358;2024-01-07T01:05:22;16.60;;;9.15;;
84966;SDS011;75275;51.348;12.358;2024-01-07T01:07:49;16.63;;;9.73;;
84966;SDS011;75275;51.348;12.358;2024-01-07T01:10:17;19.27;;;9.52;;
84966;SDS011;75275;51.348;12.358;2024-01-07T01:12:47;20.33;;;10.50;;
84966;SDS011;75275;51.348;12.358;2024-01-07T01:15:15;18.85;;;10.10;;
84966;SDS011;75275;51.348;12.358;2024-01-07T01:17:42;16.77;;;9.63;;
84966;SDS011;75275;51.348;12.358;2024-01-07T01:22:37;17.35;;;10.30;;
84966;SDS011;75275;51.348;12.358;2024-01-07T01:25:04;21.52;;;9.60;;
84966;SDS011;75275;51.348;12.358;2024-01-07T01:27:31;19.70;;;9.82;;
84966;SDS011;75275;51.348;12.358;2024-01-07T01:29:58;16.05;;;9.18;;
84966;SDS011;75275;51.348;12.358;2024-01-07T01:32:27;18.33;;;10.18;;
84966;SDS011;75275;51.348;12.358;2024-01-07T01:34:54;23.15;;;9.95;;
84966;SDS011;75275;51.348;12.358;2024-01-07T01:37:23;16.13;;;8.82;;
84966;SDS011;75275;51.348;12.358;2024-01-07T01:39:53;21.83;;;9.48;;
84966;SDS011;75275;51.348;12.358;2024-01-07T01:42:23;16.77;;;9.50;;
84966;SDS011;75275;51.348;12.358;2024-01-07T01:44:50;19.55;;;9.90;;
84966;SDS011;75275;51.348;12.358;2024-01-07T01:47:22;16.75;;;8.93;;
84966;SDS011;75275;51.348;12.358;2024-01-07T01:52:23;17.88;;;9.50;;
84966;SDS011;75275;51.348;12.358;2024-01-07T01:54:51;16.83;;;9.10;;
84966;SDS011;75275;51.348;12.358;2024-01-07T01:57:22;17.38;;;8.73;;
84966;SDS011;75275;51.348;12.358;2024-01-07T01:59:55;15.63;;;8.63;;
84966;SDS011;75275;51.348;12.358;2024-01-07T02:02:27;17.45;;;8.93;;
84966;SDS011;75275;51.348;12.358;2024-01-07T02:04:57;19.35;;;9.45;;
84966;SDS011;75275;51.348;12.358;2024-01-07T02:07:25;15.05;;;8.60;;
84966;SDS011;75275;51.348;12.358;2024-01-07T02:09:54;17.48;;;8.85;;
84966;SDS011;75275;51.348;12.358;2024-01-07T02:12:21;15.48;;;8.63;;
84966;SDS011;75275;51.348;12.358;2024-01-07T02:14:48;16.40;;;9.18;;
84966;SDS011;75275;51.348;12.358;2024-01-07T02:17:15;15.88;;;8.15;;
84966;SDS011;75275;51.348;12.358;2024-01-07T02:19:42;15.50;;;8.40;;
84966;SDS011;75275;51.348;12.358;2024-01-07T02:22:11;14.07;;;8.10;;
84966;SDS011;75275;51.348;12.358;2024-01-07T02:24:39;15.63;;;8.77;;
84966;SDS011;75275;51.348;12.358;2024-01-07T02:27:06;16.35;;;8.52;;
84966;SDS011;75275;51.348;12.358;2024-01-07T02:29:34;13.27;;;7.72;;
84966;SDS011;75275;51.348;12.358;2024-01-07T02:32:01;15.90;;;9.05;;
84966;SDS011;75275;51.348;12.358;2024-01-07T02:34:28;12.50;;;7.10;;
84966;SDS011;75275;51.348;12.358;2024-01-07T02:36:54;13.93;;;7.68;;
84966;SDS011;75275;51.348;12.358;2024-01-07T02:39:21;13.20;;;7.18;;
84966;SDS011;75275;51.348;12.358;2024-01-07T02:41:50;16.42;;;7.47;;
84966;SDS011;75275;51.348;12.358;2024-01-07T02:44:17;15.48;;;8.57;;
84966;SDS011;75275;51.348;12.358;2024-01-07T02:46:44;14.27;;;7.93;;
84966;SDS011;75275;51.348;12.358;2024-01-07T02:49:11;15.98;;;8.00;;
84966;SDS011;75275;51.348;12.358;2024-01-07T02:51:38;14.90;;;8.07;;
84966;SDS011;75275;51.348;12.358;2024-01-07T02:56:32;14.30;;;7.53;;
84966;SDS011;75275;51.348;12.358;2024-01-07T02:59:01;14.88;;;8.15;;
84966;SDS011;75275;51.348;12.358;2024-01-07T03:01:27;13.35;;;7.43;;
84966;SDS011;75275;51.348;12.358;2024-01-07T03:03:57;15.55;;;8.18;;
84966;SDS011;75275;51.348;12.358;2024-01-07T03:06:26;15.80;;;8.48;;
84966;SDS011;75275;51.348;12.358;2024-01-07T03:08:53;13.68;;;7.80;;
84966;SDS011;75275;51.348;12.358;2024-01-07T03:11:21;12.85;;;7.60;;
84966;SDS011;75275;51.348;12.358;2024-01-07T03:13:48;14.63;;;8.45;;
84966;SDS011;75275;51.348;12.358;2024-01-07T03:16:22;12.77;;;8.30;;
84966;SDS011;75275;51.348;12.358;2024-01-07T03:18:53;14.75;;;8.27;;
84966;SDS011;75275;51.348;12.358;2024-01-07T03:21:21;11.57;;;6.63;;
84966;SDS011;75275;51.348;12.358;2024-01-07T03:23:49;11.55;;;6.95;;
84966;SDS011;75275;51.348;12.358;2024-01-07T03:26:17;11.40;;;5.70;;
84966;SDS011;75275;51.348;12.358;2024-01-07T03:28:45;11.77;;;6.25;;
84966;SDS011;75275;51.348;12.358;2024-01-07T03:31:13;9.20;;;5.45;;
84966;SDS011;75275;51.348;12.358;2024-01-07T03:33:44;10.70;;;5.25;;
84966;SDS011;75275;51.348;12.358;2024-01-07T03:36:12;14.07;;;6.88;;
84966;SDS011;75275;51.348;12.358;2024-01-07T03:38:42;10.73;;;5.25;;
84966;SDS011;75275;51.348;12.358;2024-01-07T03:41:15;11.02;;;5.93;;
84966;SDS011;75275;51.348;12.358;2024-01-07T03:43:42;10.73;;;5.32;;
84966;SDS011;75275;51.348;12.358;2024-01-07T03:46:10;10.00;;;5.80;;
84966;SDS011;75275;51.348;12.358;2024-01-07T03:48:40;9.48;;;5.70;;
84966;SDS011;75275;51.348;12.358;2024-01-07T03:53:35;9.43;;;5.00;;
84966;SDS011;75275;51.348;12.358;2024-01-07T03:56:02;8.52;;;5.05;;
84966;SDS011;75275;51.348;12.358;2024-01-07T04:00:57;9.27;;;4.68;;
84966;SDS011;75275;51.348;12.358;2024-01-07T04:03:23;10.80;;;5.22;;
84966;SDS011;75275;51.348;12.358;2024-01-07T04:05:51;10.35;;;4.82;;
84966;SDS011;75275;51.348;12.358;2024-01-07T04:08:19;8.73;;;4.28;;
84966;SDS011;75275;51.348;12.358;2024-01-07T04:10:48;12.52;;;5.03;;
84966;SDS011;75275;51.348;12.358;2024-01-07T04:13:15;9.02;;;4.70;;
84966;SDS011;75275;51.348;12.358;2024-01-07T04:15:45;10.02;;;4.75;;
84966;SDS011;75275;51.348;12.358;2024-01-07T04:18:12;9.82;;;5.35;;
84966;SDS011;75275;51.348;12.358;2024-01-07T04:20:39;10.30;;;5.15;;
84966;SDS011;75275;51.348;12.358;2024-01-07T04:23:06;9.25;;;4.40;;
84966;SDS011;75275;51.348;12.358;2024-01-07T04:25:34;8.20;;;4.80;;
84966;SDS011;75275;51.348;12.358;2024-01-07T04:28:01;8.43;;;4.80;;
84966;SDS011;75275;51.348;12.358;2024-01-07T04:32:55;8.23;;;4.13;;
84966;SDS011;75275;51.348;12.358;2024-01-07T04:35:22;9.02;;;5.07;;
84966;SDS011;75275;51.348;12.358;2024-01-07T04:37:52;12.05;;;6.10;;
84966;SDS011;75275;51.348;12.358;2024-01-07T04:40:19;8.55;;;4.93;;
84966;SDS011;75275;51.348;12.358;2024-01-07T04:42:47;7.82;;;4.47;;
84966;SDS011;75275;51.348;12.358;2024-01-07T04:45:14;9.02;;;3.97;;
84966;SDS011;75275;51.348;12.358;2024-01-07T04:47:41;8.50;;;4.65;;
84966;SDS011;75275;51.348;12.358;2024-01-07T04:50:11;8.13;;;4.50;;
84966;SDS011;75275;51.348;12.358;2024-01-07T04:52:44;7.50;;;4.25;;
84966;SDS011;75275;51.348;12.358;2024-01-07T04:55:14;8.43;;;4.28;;
84966;SDS011;75275;51.348;12.358;2024-01-07T04:57:41;8.82;;;4.40;;
84966;SDS011;75275;51.348;12.358;2024-01-07T05:00:11;8.80;;;4.20;;
84966;SDS011;75275;51.348;12.358;2024-01-07T05:02:39;8.68;;;5.22;;
84966;SDS011;75275;51.348;12.358;2024-01-07T05:05:07;14.82;;;4.32;;
84966;SDS011;75275;51.348;12.358;2024-01-07T05:07:34;8.48;;;4.60;;
84966;SDS011;75275;51.348;12.358;2024-01-07T05:10:01;8.45;;;3.60;;
84966;SDS011;75275;51.348;12.358;2024-01-07T05:12:29;8.07;;;4.32;;
84966;SDS011;75275;51.348;12.358;2024-01-07T05:14:56;7.18;;;3.55;;
84966;SDS011;75275;51.348;12.358;2024-01-07T05:17:24;5.80;;;3.30;;
84966;SDS011;75275;51.348;12.358;2024-01-07T05:19:51;7.03;;;3.58;;
84966;SDS011;75275;51.348;12.358;2024-01-07T05:22:20;10.00;;;4.00;;
84966;SDS011;75275;51.348;12.358;2024-01-07T05:24:47;6.20;;;3.65;;
84966;SDS011;75275;51.348;12.358;2024-01-07T05:27:23;5.20;;;3.20;;
84966;SDS011;75275;51.348;12.358;2024-01-07T05:29:50;8.68;;;3.65;;
84966;SDS011;75275;51.348;12.358;2024-01-07T05:32:20;6.13;;;3.67;;
84966;SDS011;75275;51.348;12.358;2024-01-07T05:34:50;10.07;;;3.97;;
84966;SDS011;75275;51.348;12.358;2024-01-07T05:37:16;5.80;;;3.15;;
84966;SDS011;75275;51.348;12.358;2024-01-07T05:39:43;8.13;;;3.88;;
84966;SDS011;75275;51.348;12.358;2024-01-07T05:42:12;6.95;;;3.25;;
84966;SDS011;75275;51.348;12.358;2024-01-07T05:44:41;6.05;;;3.30;;
84966;SDS011;75275;51.348;12.358;2024-01-07T05:47:09;7.20;;;3.45;;
84966;SDS011;75275;51.348;12.358;2024-01-07T05:49:35;7.60;;;3.55;;
84966;SDS011;75275;51.348;12.358;2024-01-07T05:52:05;6.40;;;3.17;;
84966;SDS011;75275;51.348;12.358;2024-01-07T05:54:32;6.55;;;3.28;;
84966;SDS011;75275;51.348;12.358;2024-01-07T05:56:59;5.18;;;2.83;;
84966;SDS011;75275;51.348;12.358;2024-01-07T05:59:26;6.15;;;3.03;;
84966;SDS011;75275;51.348;12.358;2024-01-07T06:01:57;5.65;;;3.00;;
84966;SDS011;75275;51.348;12.358;2024-01-07T06:04:24;10.15;;;3.33;;
84966;SDS011;75275;51.348;12.358;2024-01-07T06:06:52;6.80;;;3.72;;
84966;SDS011;75275;51.348;12.358;2024-01-07T06:09:21;6.45;;;3.10;;
84966;SDS011;75275;51.348;12.358;2024-01-07T06:11:48;5.20;;;3.20;;
84966;SDS011;75275;51.348;12.358;2024-01-07T06:14:15;5.90;;;3.05;;
84966;SDS011;75275;51.348;12.358;2024-01-07T06:16:44;4.78;;;2.80;;
84966;SDS011;75275;51.348;12.358;2024-01-07T06:19:11;8.55;;;3.80;;
84966;SDS011;75275;51.348;12.358;2024-01-07T06:21:39;6.22;;;3.28;;
84966;SDS011;75275;51.348;12.358;2024-01-07T06:24:12;5.63;;;2.80;;
84966;SDS011;75275;51.348;12.358;2024-01-07T06:26:41;6.30;;;2.85;;
84966;SDS011;75275;51.348;12.358;2024-01-07T06:29:08;6.63;;;3.00;;
84966;SDS011;75275;51.348;12.358;2024-01-07T06:34:02;5.75;;;2.80;;
84966;SDS011;75275;51.348;12.358;2024-01-07T06:36:29;5.53;;;2.78;;
84966;SDS011;75275;51.348;12.358;2024-01-07T06:38:56;6.10;;;3.20;;
84966;SDS011;75275;51.348;12.358;2024-01-07T06:41:23;9.23;;;2.97;;
84966;SDS011;75275;51.348;12.358;2024-01-07T06:43:52;5.10;;;3.15;;
84966;SDS011;75275;51.348;12.358;2024-01-07T06:46:22;5.70;;;2.75;;
84966;SDS011;75275;51.348;12.358;2024-01-07T06:48:48;5.68;;;2.95;;
84966;SDS011;75275;51.348;12.358;2024-01-07T06:53:45;4.30;;;2.30;;
84966;SDS011;75275;51.348;12.358;2024-01-07T06:56:12;5.35;;;3.00;;
84966;SDS011;75275;51.348;12.358;2024-01-07T06:58:39;5.93;;;2.78;;
84966;SDS011;75275;51.348;12.358;2024-01-07T07:01:08;4.65;;;2.88;;
84966;SDS011;75275;51.348;12.358;2024-01-07T07:03:35;5.50;;;2.80;;
84966;SDS011;75275;51.348;12.358;2024-01-07T07:06:02;5.72;;;3.05;;
84966;SDS011;75275;51.348;12.358;2024-01-07T07:08:29;5.47;;;2.83;;
84966;SDS011;75275;51.348;12.358;2024-01-07T07:10:56;5.85;;;2.85;;
84966;SDS011;75275;51.348;12.358;2024-01-07T07:13:23;5.68;;;3.42;;
84966;SDS011;75275;51.348;12.358;2024-01-07T07:15:50;5.65;;;2.85;;
84966;SDS011;75275;51.348;12.358;2024-01-07T07:18:20;4.60;;;3.25;;
84966;SDS011;75275;51.348;12.358;2024-01-07T07:20:47;7.30;;;3.53;;
84966;SDS011;75275;51.348;12.358;2024-01-07T07:23:14;6.00;;;3.60;;
84966;SDS011;75275;51.348;12.358;2024-01-07T07:25:43;6.80;;;2.95;;
84966;SDS011;75275;51.348;12.358;2024-01-07T07:28:13;6.38;;;3.17;;
84966;SDS011;75275;51.348;12.358;2024-01-07T07:30:43;4.88;;;2.90;;
84966;SDS011;75275;51.348;12.358;2024-01-07T07:33:10;6.78;;;3.10;;
84966;SDS011;75275;51.348;12.358;2024-01-07T07:35:40;5.40;;;3.58;;
84966;SDS011;75275;51.348;12.358;2024-01-07T07:38:07;7.25;;;3.10;;
84966;SDS011;75275;51.348;12.358;2024-01-07T07:40:34;5.78;;;3.42;;
84966;SDS011;75275;51.348;12.358;2024-01-07T07:43:01;5.00;;;3.13;;
84966;SDS011;75275;51.348;12.358;2024-01-07T07:45:30;6.97;;;3.00;;
84966;SDS011;75275;51.348;12.358;2024-01-07T07:47:57;7.63;;;3.28;;
84966;SDS011;75275;51.348;12.358;2024-01-07T07:50:27;5.80;;;2.95;;
84966;SDS011;75275;51.348;12.358;2024-01-07T07:52:56;5.07;;;2.85;;
84966;SDS011;75275;51.348;12.358;2024-01-07T07:55:23;5.88;;;3.00;;
84966;SDS011;75275;51.348;12.358;2024-01-07T07:57:50;6.68;;;3.17;;
84966;SDS011;75275;51.348;12.358;2024-01-07T08:00:18;6.78;;;3.08;;
84966;SDS011;75275;51.348;12.358;2024-01-07T08:02:45;4.75;;;2.92;;
84966;SDS011;75275;51.348;12.358;2024-01-07T08:05:12;5.45;;;2.63;;
84966;SDS011;75275;51.348;12.358;2024-01-07T08:07:39;4.25;;;2.55;;
84966;SDS011;75275;51.348;12.358;2024-01-07T08:10:09;6.18;;;3.30;;
84966;SDS011;75275;51.348;12.358;2024-01-07T08:12:36;6.13;;;2.78;;
84966;SDS011;75275;51.348;12.358;2024-01-07T08:15:03;5.30;;;2.60;;
84966;SDS011;75275;51.348;12.358;2024-01-07T08:17:32;6.50;;;3.65;;
84966;SDS011;75275;51.348;12.358;2024-01-07T08:19:59;5.45;;;2.90;;
84966;SDS011;75275;51.348;12.358;2024-01-07T08:22:26;6.68;;;3.30;;
84966;SDS011;75275;51.348;12.358;2024-01-07T08:24:54;6.68;;;2.88;;
84966;SDS011;75275;51.348;12.358;2024-01-07T08:27:22;6.22;;;2.92;;
84966;SDS011;75275;51.348;12.358;2024-01-07T08:29:49;4.07;;;2.70;;
84966;SDS011;75275;51.348;12.358;2024-01-07T08:32:16;5.45;;;3.00;;
84966;SDS011;75275;51.348;12.358;2024-01-07T08:34:44;5.00;;;2.88;;
84966;SDS011;75275;51.348;12.358;2024-01-07T08:37:11;6.55;;;3.10;;
84966;SDS011;75275;51.348;12.358;2024-01-07T08:39:38;5.78;;;2.95;;
84966;SDS011;75275;51.348;12.358;2024-01-07T08:42:05;5.70;;;2.88;;
84966;SDS011;75275;51.348;12.358;2024-01-07T08:44:34;6.65;;;3.22;;
84966;SDS011;75275;51.348;12.358;2024-01-07T08:47:04;7.30;;;3.47;;
84966;SDS011;75275;51.348;12.358;2024-01-07T08:49:31;7.72;;;2.63;;
84966;SDS011;75275;51.348;12.358;2024-01-07T08:51:59;5.68;;;2.72;;
84966;SDS011;75275;51.348;12.358;2024-01-07T08:54:26;10.43;;;2.88;;
84966;SDS011;75275;51.348;12.358;2024-01-07T08:56:53;5.97;;;2.85;;
84966;SDS011;75275;51.348;12.358;2024-01-07T08:59:20;4.50;;;2.40;;
84966;SDS011;75275;51.348;12.358;2024-01-07T09:01:49;4.68;;;2.83;;
84966;SDS011;75275;51.348;12.358;2024-01-07T09:04:16;4.55;;;2.78;;
84966;SDS011;75275;51.348;12.358;2024-01-07T09:06:43;5.15;;;2.40;;
84966;SDS011;75275;51.348;12.358;2024-01-07T09:09:10;5.45;;;2.88;;
84966;SDS011;75275;51.348;12.358;2024-01-07T09:11:38;4.30;;;2.38;;
84966;SDS011;75275;51.348;12.358;2024-01-07T09:14:05;5.68;;;2.70;;
84966;SDS011;75275;51.348;12.358;2024-01-07T09:16:31;4.95;;;2.30;;
84966;SDS011;75275;51.348;12.358;2024-01-07T09:19:00;5.68;;;2.40;;
84966;SDS011;75275;51.348;12.358;2024-01-07T09:21:27;3.92;;;2.00;;
84966;SDS011;75275;51.348;12.358;2024-01-07T09:23:57;6.43;;;2.30;;
84966;SDS011;75275;51.348;12.358;2024-01-07T09:26:24;4.28;;;1.92;;
84966;SDS011;75275;51.348;12.358;2024-01-07T09:28:51;4.57;;;2.15;;
84966;SDS011;75275;51.348;12.358;2024-01-07T09:31:18;4.50;;;2.65;;
84966;SDS011;75275;51.348;12.358;2024-01-07T09:33:45;3.25;;;1.98;;
84966;SDS011;75275;51.348;12.358;2024-01-07T09:36:14;3.88;;;1.85;;
84966;SDS011;75275;51.348;12.358;2024-01-07T09:38:41;4.03;;;1.85;;
84966;SDS011;75275;51.348;12.358;2024-01-07T09:41:08;3.30;;;1.70;;
84966;SDS011;75275;51.348;12.358;2024-01-07T09:43:35;5.10;;;2.10;;
84966;SDS011;75275;51.348;12.358;2024-01-07T09:46:03;3.72;;;1.85;;
84966;SDS011;75275;51.348;12.358;2024-01-07T09:48:30;3.90;;;2.05;;
84966;SDS011;75275;51.348;12.358;2024-01-07T09:51:00;5.18;;;2.33;;
84966;SDS011;75275;51.348;12.358;2024-01-07T09:53:30;4.00;;;1.85;;
84966;SDS011;75275;51.348;12.358;2024-01-07T09:56:05;4.75;;;1.85;;
84966;SDS011;75275;51.348;12.358;2024-01-07T09:58:39;3.78;;;1.73;;
84966;SDS011;75275;51.348;12.358;2024-01-07T10:01:08;4.18;;;1.80;;
84966;SDS011;75275;51.348;12.358;2024-01-07T10:03:39;3.17;;;1.55;;
84966;SDS011;75275;51.348;12.358;2024-01-07T10:06:06;3.72;;;1.95;;
84966;SDS011;75275;51.348;12.358;2024-01-07T10:08:43;4.20;;;1.70;;
84966;SDS011;75275;51.348;12.358;2024-01-07T10:13:39;4.57;;;1.88;;
84966;SDS011;75275;51.348;12.358;2024-01-07T10:16:07;3.67;;;1.65;;
84966;SDS011;75275;51.348;12.358;2024-01-07T10:18:34;4.22;;;1.30;;
84966;SDS011;75275;51.348;12.358;2024-01-07T10:21:03;3.47;;;1.70;;
84966;SDS011;75275;51.348;12.358;2024-01-07T10:23:32;2.55;;;1.45;;
84966;SDS011;75275;51.348;12.358;2024-01-07T10:26:01;3.30;;;1.80;;
84966;SDS011;75275;51.348;12.358;2024-01-07T10:28:29;2.85;;;1.50;;
84966;SDS011;75275;51.348;12.358;2024-01-07T10:30:57;2.92;;;1.30;;
84966;SDS011;75275;51.348;12.358;2024-01-07T10:33:30;2.72;;;1.50;;
84966;SDS011;75275;51.348;12.358;2024-01-07T10:36:00;2.97;;;1.63;;
84966;SDS011;75275;51.348;12.358;2024-01-07T10:38:29;2.85;;;1.30;;
84966;SDS011;75275;51.348;12.358;2024-01-07T10:40:56;3.50;;;1.50;;
84966;SDS011;75275;51.348;12.358;2024-01-07T10:43:29;3.13;;;1.52;;
84966;SDS011;75275;51.348;12.358;2024-01-07T10:45:56;3.00;;;1.40;;
84966;SDS011;75275;51.348;12.358;2024-01-07T10:48:30;2.20;;;1.10;;
84966;SDS011;75275;51.348;12.358;2024-01-07T10:51:04;3.17;;;1.70;;
84966;SDS011;75275;51.348;12.358;2024-01-07T10:53:33;3.53;;;1.67;;
84966;SDS011;75275;51.348;12.358;2024-01-07T10:56:03;2.95;;;1.52;;
84966;SDS011;75275;51.348;12.358;2024-01-07T10:58:33;3.50;;;1.58;;
84966;SDS011;75275;51.348;12.358;2024-01-07T11:01:02;2.83;;;1.30;;
84966;SDS011;75275;51.348;12.358;2024-01-07T11:03:32;3.00;;;1.60;;
84966;SDS011;75275;51.348;12.358;2024-01-07T11:06:06;3.58;;;1.73;;
84966;SDS011;75275;51.348;12.358;2024-01-07T11:08:43;2.47;;;1.38;;
84966;SDS011;75275;51.348;12.358;2024-01-07T11:11:17;3.58;;;1.85;;
84966;SDS011;75275;51.348;12.358;2024-01-07T11:13:50;3.83;;;1.67;;
84966;SDS011;75275;51.348;12.358;2024-01-07T11:19:12;2.42;;;1.40;;
84966;SDS011;75275;51.348;12.358;2024-01-07T11:21:40;2.70;;;1.42;;
84966;SDS011;75275;51.348;12.358;2024-01-07T11:24:07;2.80;;;1.40;;
84966;SDS011;75275;51.348;12.358;2024-01-07T11:26:34;2.50;;;1.30;;
84966;SDS011;75275;51.348;12.358;2024-01-07T11:29:02;2.75;;;1.40;;
84966;SDS011;75275;51.348;12.358;2024-01-07T11:31:42;3.35;;;1.88;;
84966;SDS011;75275;51.348;12.358;2024-01-07T11:34:21;2.70;;;1.45;;
84966;SDS011;75275;51.348;12.358;2024-01-07T11:37:04;2.22;;;1.30;;
84966;SDS011;75275;51.348;12.358;2024-01-07T11:39:38;3.92;;;1.70;;
84966;SDS011;75275;51.348;12.358;2024-01-07T11:42:05;3.08;;;1.40;;
84966;SDS011;75275;51.348;12.358;2024-01-07T11:47:04;3.65;;;1.20;;
84966;SDS011;75275;51.348;12.358;2024-01-07T11:49:31;3.03;;;1.48;;
84966;SDS011;75275;51.348;12.358;2024-01-07T11:51:58;3.80;;;1.40;;
84966;SDS011;75275;51.348;12.358;2024-01-07T11:54:28;2.42;;;1.10;;
84966;SDS011;75275;51.348;12.358;2024-01-07T11:59:22;2.85;;;1.40;;
84966;SDS011;75275;51.348;12.358;2024-01-07T12:01:51;3.17;;;1.42;;
84966;SDS011;75275;51.348;12.358;2024-01-07T12:04:18;2.53;;;1.30;;
84966;SDS011;75275;51.348;12.358;2024-01-07T12:06:47;5.10;;;1.70;;
84966;SDS011;75275;51.348;12.358;2024-01-07T12:09:15;3.00;;;1.55;;
84966;SDS011;75275;51.348;12.358;2024-01-07T12:11:42;2.83;;;1.25;;
84966;SDS011;75275;51.348;12.358;2024-01-07T12:14:12;3.40;;;1.73;;
84966;SDS011;75275;51.348;12.358;2024-01-07T12:16:40;3.80;;;1.40;;
84966;SDS011;75275;51.348;12.358;2024-01-07T12:19:09;4.72;;;1.58;;
84966;SDS011;75275;51.348;12.358;2024-01-07T12:21:39;2.47;;;1.27;;
84966;SDS011;75275;51.348;12.358;2024-01-07T12:24:06;3.35;;;1.60;;
84966;SDS011;75275;51.348;12.358;2024-01-07T12:26:34;3.92;;;1.50;;
84966;SDS011;75275;51.348;12.358;2024-01-07T12:29:02;5.07;;;1.52;;
84966;SDS011;75275;51.348;12.358;2024-01-07T12:31:35;2.72;;;1.40;;
84966;SDS011;75275;51.348;12.358;2024-01-07T12:34:03;3.60;;;1.70;;
84966;SDS011;75275;51.348;12.358;2024-01-07T12:36:34;2.65;;;1.50;;
84966;SDS011;75275;51.348;12.358;2024-01-07T12:39:01;2.60;;;1.35;;
84966;SDS011;75275;51.348;12.358;2024-01-07T12:41:28;3.15;;;1.60;;
84966;SDS011;75275;51.348;12.358;2024-01-07T12:43:55;2.83;;;1.30;;
84966;SDS011;75275;51.348;12.358;2024-01-07T12:46:24;3.50;;;1.60;;
84966;SDS011;75275;51.348;12.358;2024-01-07T12:48:50;2.90;;;1.42;;
84966;SDS011;75275;51.348;12.358;2024-01-07T12:51:20;3.05;;;1.67;;
84966;SDS011;75275;51.348;12.358;2024-01-07T12:53:49;2.50;;;1.25;;
84966;SDS011;75275;51.348;12.358;2024-01-07T12:56:16;2.20;;;1.23;;
84966;SDS011;75275;51.348;12.358;2024-01-07T12:58:43;2.60;;;1.30;;
84966;SDS011;75275;51.348;12.358;2024-01-07T13:01:15;2.53;;;1.20;;
84966;SDS011;75275;51.348;12.358;2024-01-07T13:03:42;2.88;;;1.20;;
84966;SDS011;75275;51.348;12.358;2024-01-07T13:06:14;5.50;;;1.50;;
84966;SDS011;75275;51.348;12.358;2024-01-07T13:08:41;2.45;;;1.25;;
84966;SDS011;75275;51.348;12.358;2024-01-07T13:11:09;2.83;;;1.52;;
84966;SDS011;75275;51.348;12.358;2024-01-07T13:13:41;4.30;;;1.70;;
84966;SDS011;75275;51.348;12.358;2024-01-07T13:16:08;3.13;;;1.48;;
84966;SDS011;75275;51.348;12.358;2024-01-07T13:18:36;4.25;;;1.42;;
84966;SDS011;75275;51.348;12.358;2024-01-07T13:21:03;5.47;;;1.60;;
84966;SDS011;75275;51.348;12.358;2024-01-07T13:23:31;3.35;;;1.55;;
84966;SDS011;75275;51.348;12.358;2024-01-07T13:25:58;2.70;;;1.48;;
84966;SDS011;75275;51.348;12.358;2024-01-07T13:28:29;3.20;;;1.52;;
84966;SDS011;75275;51.348;12.358;2024-01-07T13:30:56;2.95;;;1.60;;
84966;SDS011;75275;51.348;12.358;2024-01-07T13:33:23;2.90;;;1.30;;
84966;SDS011;75275;51.348;12.358;2024-01-07T13:35:50;4.38;;;1.75;;
84966;SDS011;75275;51.348;12.358;2024-01-07T13:38:17;4.03;;;1.75;;
84966;SDS011;75275;51.348;12.358;2024-01-07T13:40:45;3.28;;;1.50;;
84966;SDS011;75275;51.348;12.358;2024-01-07T13:43:12;3.78;;;1.58;;
84966;SDS011;75275;51.348;12.358;2024-01-07T13:45:40;2.72;;;1.40;;
84966;SDS011;75275;51.348;12.358;2024-01-07T13:48:09;3.50;;;1.30;;
84966;SDS011;75275;51.348;12.358;2024-01-07T13:50:36;3.13;;;1.38;;
84966;SDS011;75275;51.348;12.358;2024-01-07T13:53:03;2.15;;;1.20;;
84966;SDS011;75275;51.348;12.358;2024-01-07T13:55:30;2.83;;;1.80;;
84966;SDS011;75275;51.348;12.358;2024-01-07T13:57:57;3.05;;;1.30;;
84966;SDS011;75275;51.348;12.358;2024-01-07T14:02:54;2.95;;;1.52;;
84966;SDS011;75275;51.348;12.358;2024-01-07T14:05:21;3.17;;;1.52;;
84966;SDS011;75275;51.348;12.358;2024-01-07T14:07:48;3.40;;;1.65;;
84966;SDS011;75275;51.348;12.358;2024-01-07T14:10:17;3.30;;;1.95;;
84966;SDS011;75275;51.348;12.358;2024-01-07T14:12:44;13.85;;;8.50;;
84966;SDS011;75275;51.348;12.358;2024-01-07T14:15:12;3.55;;;1.58;;
84966;SDS011;75275;51.348;12.358;2024-01-07T14:17:39;3.33;;;2.00;;
84966;SDS011;75275;51.348;12.358;2024-01-07T14:20:09;2.70;;;1.52;;
84966;SDS011;75275;51.348;12.358;2024-01-07T14:22:36;3.90;;;1.90;;
84966;SDS011;75275;51.348;12.358;2024-01-07T14:25:05;3.40;;;2.20;;
84966;SDS011;75275;51.348;12.358;2024-01-07T14:27:32;3.65;;;1.75;;
84966;SDS011;75275;51.348;12.358;2024-01-07T14:29:58;3.15;;;1.60;;
84966;SDS011;75275;51.348;12.358;2024-01-07T14:32:25;3.55;;;1.50;;
84966;SDS011;75275;51.348;12.358;2024-01-07T14:34:54;5.65;;;2.45;;
84966;SDS011;75275;51.348;12.358;2024-01-07T14:37:22;3.45;;;1.50;;
84966;SDS011;75275;51.348;12.358;2024-01-07T14:39:49;2.75;;;1.42;;
84966;SDS011;75275;51.348;12.358;2024-01-07T14:42:16;3.20;;;1.60;;
84966;SDS011;75275;51.348;12.358;2024-01-07T14:44:46;3.95;;;1.70;;
84966;SDS011;75275;51.348;12.358;2024-01-07T14:47:13;3.95;;;1.90;;
84966;SDS011;75275;51.348;12.358;2024-01-07T14:49:41;4.18;;;1.88;;
84966;SDS011;75275;51.348;12.358;2024-01-07T14:52:07;4.53;;;2.00;;
84966;SDS011;75275;51.348;12.358;2024-01-07T14:54:38;2.50;;;1.45;;
84966;SDS011;75275;51.348;12.358;2024-01-07T14:57:05;3.60;;;1.80;;
84966;SDS011;75275;51.348;12.358;2024-01-07T14:59:33;3.83;;;1.80;;
84966;SDS011;75275;51.348;12.358;2024-01-07T15:02:01;3.20;;;1.70;;
84966;SDS011;75275;51.348;12.358;2024-01-07T15:04:28;3.42;;;1.60;;
84966;SDS011;75275;51.348;12.358;2024-01-07T15:06:56;4.22;;;1.90;;
84966;SDS011;75275;51.348;12.358;2024-01-07T15:09:24;3.72;;;2.00;;